createdAt,value
2018-05-13T00:00:25.207Z,95060
2018-05-13T00:01:02.782Z,95063
2018-05-13T00:01:40.194Z,95064
2018-05-13T00:02:17.750Z,95057
2018-05-13T00:02:55.381Z,95059
2018-05-13T00:03:33.000Z,95057
2018-05-13T00:04:10.355Z,95058
2018-05-13T00:04:48.475Z,95052
2018-05-13T00:05:26.648Z,95053
2018-05-13T00:06:03.948Z,95053
2018-05-13T00:06:41.524Z,95053
2018-05-13T00:07:19.122Z,95057
2018-05-13T00:07:56.732Z,95051
2018-05-13T00:08:34.993Z,95054
2018-05-13T00:09:13.262Z,95056
2018-05-13T00:09:51.358Z,95054
2018-05-13T00:10:28.687Z,95051
2018-05-13T00:11:06.071Z,95054
2018-05-13T00:11:43.622Z,95056
2018-05-13T00:12:21.176Z,95052
2018-05-13T00:12:58.826Z,95054
2018-05-13T00:13:37.156Z,95052
2018-05-13T00:14:14.747Z,95051
2018-05-13T00:14:52.295Z,95056
2018-05-13T00:15:29.645Z,95052
2018-05-13T00:16:07.209Z,95053
2018-05-13T00:16:44.723Z,95052
2018-05-13T00:17:23.051Z,95050
2018-05-13T00:18:01.371Z,95047
2018-05-13T00:18:38.787Z,95046
2018-05-13T00:19:16.315Z,95048
2018-05-13T00:19:53.816Z,95049
2018-05-13T00:20:31.980Z,95047
2018-05-13T00:21:09.559Z,95043
2018-05-13T00:21:46.913Z,95047
2018-05-13T00:22:25.061Z,95049
2018-05-13T00:23:02.565Z,95046
2018-05-13T00:23:40.716Z,95047
2018-05-13T00:24:19.002Z,95046
2018-05-13T00:24:56.598Z,95041
2018-05-13T00:25:34.070Z,95045
2018-05-13T00:26:11.643Z,95044
2018-05-13T00:26:49.229Z,95041
2018-05-13T00:27:26.810Z,95041
2018-05-13T00:28:05.170Z,95042
2018-05-13T00:28:42.690Z,95041
2018-05-13T00:29:20.381Z,95039
2018-05-13T00:29:57.853Z,95039
2018-05-13T00:30:35.955Z,95040
2018-05-13T00:31:13.526Z,95040
2018-05-13T00:31:51.008Z,95039
2018-05-13T00:32:29.091Z,95038
2018-05-13T00:33:07.186Z,95037
2018-05-13T00:33:44.830Z,95032
2018-05-13T00:34:22.218Z,95035
2018-05-13T00:34:59.630Z,95033
2018-05-13T00:35:37.063Z,95028
2018-05-13T00:36:15.207Z,95031
2018-05-13T00:36:52.675Z,95029
2018-05-13T00:37:30.260Z,95025
2018-05-13T00:38:07.606Z,95021
2018-05-13T00:38:44.992Z,95025
2018-05-13T00:39:22.371Z,95023
2018-05-13T00:39:59.867Z,95021
2018-05-13T00:40:37.978Z,95023
2018-05-13T00:41:15.390Z,95024
2018-05-13T00:41:52.947Z,95021
2018-05-13T00:42:30.282Z,95021
2018-05-13T00:43:07.644Z,95021
2018-05-13T00:43:45.754Z,95021
2018-05-13T00:44:24.071Z,95021
2018-05-13T00:45:01.516Z,95022
2018-05-13T00:45:39.043Z,95022
2018-05-13T00:46:16.571Z,95023
2018-05-13T00:46:54.199Z,95018
2018-05-13T00:47:31.778Z,95023
2018-05-13T00:48:09.272Z,95020
2018-05-13T00:48:46.831Z,95022
2018-05-13T00:49:24.413Z,95021
2018-05-13T00:50:01.783Z,95019
2018-05-13T00:50:39.362Z,95021
2018-05-13T00:51:16.843Z,95018
2018-05-13T00:51:54.451Z,95016
2018-05-13T00:52:32.061Z,95020
2018-05-13T00:53:09.633Z,95022
2018-05-13T00:53:47.228Z,95019
2018-05-13T00:54:24.800Z,95017
2018-05-13T00:55:02.892Z,95019
2018-05-13T00:55:41.001Z,95018
2018-05-13T00:56:18.348Z,95020
2018-05-13T00:56:56.453Z,95017
2018-05-13T00:57:34.090Z,95016
2018-05-13T00:58:11.608Z,95015
2018-05-13T00:58:49.715Z,95016
2018-05-13T00:59:27.303Z,95014
2018-05-13T01:00:04.745Z,95015
2018-05-13T01:00:42.134Z,95014
2018-05-13T01:01:20.268Z,95012
2018-05-13T01:01:57.827Z,95011
2018-05-13T01:02:35.459Z,95010
2018-05-13T01:03:13.042Z,95007
2018-05-13T01:03:50.468Z,95005
2018-05-13T01:04:28.037Z,95007
2018-05-13T01:05:05.344Z,95004
2018-05-13T01:05:43.615Z,95004
2018-05-13T01:06:21.899Z,95005
2018-05-13T01:07:00.034Z,95004
2018-05-13T01:07:38.122Z,95003
2018-05-13T01:08:15.472Z,95006
2018-05-13T01:08:53.051Z,95010
2018-05-13T01:09:30.439Z,95004
2018-05-13T01:10:07.766Z,95004
2018-05-13T01:10:45.291Z,95006
2018-05-13T01:11:22.876Z,95001
2018-05-13T01:12:00.365Z,95001
2018-05-13T01:12:37.919Z,95007
2018-05-13T01:13:15.544Z,95003
2018-05-13T01:13:52.878Z,95003
2018-05-13T01:14:30.155Z,95004
2018-05-13T01:15:07.759Z,94999
2018-05-13T01:15:45.361Z,95006
2018-05-13T01:16:23.627Z,95001
2018-05-13T01:17:01.197Z,95001
2018-05-13T01:17:39.490Z,94999
2018-05-13T01:18:17.076Z,95003
2018-05-13T01:18:54.435Z,94997
2018-05-13T01:19:31.964Z,94998
2018-05-13T01:20:09.550Z,94999
2018-05-13T01:20:47.079Z,95001
2018-05-13T01:21:25.159Z,94995
2018-05-13T01:22:02.738Z,94995
2018-05-13T01:22:40.287Z,94997
2018-05-13T01:23:17.651Z,94998
2018-05-13T01:23:55.076Z,94995
2018-05-13T01:24:32.671Z,94996
2018-05-13T01:25:10.268Z,94999
2018-05-13T01:25:47.602Z,94995
2018-05-13T01:26:25.179Z,94992
2018-05-13T01:27:02.734Z,94993
2018-05-13T01:27:40.116Z,94993
2018-05-13T01:28:17.647Z,94990
2018-05-13T01:28:55.221Z,94991
2018-05-13T01:29:33.295Z,94993
2018-05-13T01:30:10.640Z,94988
2018-05-13T01:30:48.230Z,94989
2018-05-13T01:31:25.825Z,94990
2018-05-13T01:32:03.427Z,94989
2018-05-13T01:32:40.835Z,94988
2018-05-13T01:33:18.373Z,94987
2018-05-13T01:33:56.779Z,94985
2018-05-13T01:34:34.882Z,94988
2018-05-13T01:35:12.338Z,94987
2018-05-13T01:35:49.919Z,94984
2018-05-13T01:36:27.538Z,94983
2018-05-13T01:37:05.799Z,94983
2018-05-13T01:37:43.382Z,94981
2018-05-13T01:38:20.740Z,94981
2018-05-13T01:38:58.265Z,94984
2018-05-13T01:39:35.782Z,94982
2018-05-13T01:40:14.021Z,94983
2018-05-13T01:40:51.629Z,94983
2018-05-13T01:41:29.900Z,94978
2018-05-13T01:42:07.493Z,94978
2018-05-13T01:42:45.097Z,94979
2018-05-13T01:43:23.247Z,94976
2018-05-13T01:44:01.464Z,94980
2018-05-13T01:44:39.105Z,94977
2018-05-13T01:45:16.416Z,94976
2018-05-13T01:45:54.698Z,94978
2018-05-13T01:46:32.814Z,94977
2018-05-13T01:47:10.376Z,94980
2018-05-13T01:47:48.039Z,94986
2018-05-13T01:48:25.582Z,94983
2018-05-13T01:49:03.116Z,94982
2018-05-13T01:49:40.472Z,94980
2018-05-13T01:50:17.839Z,94981
2018-05-13T01:50:55.367Z,94980
2018-05-13T01:51:32.778Z,94979
2018-05-13T01:52:10.306Z,94976
2018-05-13T01:52:47.659Z,94974
2018-05-13T01:53:25.052Z,94975
2018-05-13T01:54:02.428Z,94974
2018-05-13T01:54:39.952Z,94975
2018-05-13T01:55:17.501Z,94977
2018-05-13T01:55:55.113Z,94972
2018-05-13T01:56:32.673Z,94975
2018-05-13T01:57:10.136Z,94977
2018-05-13T01:57:47.496Z,94975
2018-05-13T01:58:24.816Z,94974
2018-05-13T01:59:02.290Z,94976
2018-05-13T01:59:39.859Z,94975
2018-05-13T02:00:17.461Z,94977
2018-05-13T02:00:55.656Z,94974
2018-05-13T02:01:33.070Z,94979
2018-05-13T02:02:10.461Z,94976
2018-05-13T02:02:48.088Z,94977
2018-05-13T02:03:25.659Z,94981
2018-05-13T02:04:03.242Z,94975
2018-05-13T02:04:40.576Z,94978
2018-05-13T02:05:18.729Z,94974
2018-05-13T02:05:56.315Z,94978
2018-05-13T02:06:33.839Z,94976
2018-05-13T02:07:11.267Z,94977
2018-05-13T02:07:48.862Z,94977
2018-05-13T02:08:26.435Z,94977
2018-05-13T02:09:04.006Z,94976
2018-05-13T02:09:41.365Z,94978
2018-05-13T02:10:18.951Z,94976
2018-05-13T02:10:56.322Z,94975
2018-05-13T02:11:33.898Z,94979
2018-05-13T02:12:11.377Z,94976
2018-05-13T02:12:48.971Z,94974
2018-05-13T02:13:27.150Z,94972
2018-05-13T02:14:05.254Z,94973
2018-05-13T02:14:42.874Z,94973
2018-05-13T02:15:20.399Z,94970
2018-05-13T02:15:58.733Z,94966
2018-05-13T02:16:36.279Z,94969
2018-05-13T02:17:13.692Z,94970
2018-05-13T02:17:51.266Z,94969
2018-05-13T02:18:28.715Z,94969
2018-05-13T02:19:06.199Z,94966
2018-05-13T02:19:43.810Z,94964
2018-05-13T02:20:21.186Z,94964
2018-05-13T02:20:58.774Z,94965
2018-05-13T02:21:36.384Z,94962
2018-05-13T02:22:13.743Z,94966
2018-05-13T02:22:51.231Z,94964
2018-05-13T02:23:28.738Z,94966
2018-05-13T02:24:06.910Z,94962
2018-05-13T02:24:44.482Z,94962
2018-05-13T02:25:22.075Z,94964
2018-05-13T02:25:59.705Z,94965
2018-05-13T02:26:37.196Z,94963
2018-05-13T02:27:14.680Z,94958
2018-05-13T02:27:52.800Z,94958
2018-05-13T02:28:30.177Z,94958
2018-05-13T02:29:07.751Z,94958
2018-05-13T02:29:45.859Z,94957
2018-05-13T02:30:23.511Z,94957
2018-05-13T02:31:01.631Z,94961
2018-05-13T02:31:39.011Z,94959
2018-05-13T02:32:16.613Z,94962
2018-05-13T02:32:54.187Z,94958
2018-05-13T02:33:31.548Z,94959
2018-05-13T02:34:09.027Z,94957
2018-05-13T02:34:46.619Z,94961
2018-05-13T02:35:24.227Z,94965
2018-05-13T02:36:01.787Z,94961
2018-05-13T02:36:39.341Z,94962
2018-05-13T02:37:16.797Z,94962
2018-05-13T02:37:55.101Z,94963
2018-05-13T02:38:32.670Z,94962
2018-05-13T02:39:10.163Z,94964
2018-05-13T02:39:47.745Z,94961
2018-05-13T02:40:25.244Z,94962
2018-05-13T02:41:02.856Z,94963
2018-05-13T02:41:40.346Z,94959
2018-05-13T02:42:17.746Z,94960
2018-05-13T02:42:55.391Z,94964
2018-05-13T02:43:32.990Z,94961
2018-05-13T02:44:11.149Z,94965
2018-05-13T02:44:49.358Z,94965
2018-05-13T02:45:26.837Z,94962
2018-05-13T02:46:04.382Z,94958
2018-05-13T02:46:41.959Z,94965
2018-05-13T02:47:19.581Z,94958
2018-05-13T02:47:57.138Z,94966
2018-05-13T02:48:35.426Z,94959
2018-05-13T02:49:13.004Z,94959
2018-05-13T02:49:50.616Z,94951
2018-05-13T02:50:28.807Z,94956
2018-05-13T02:51:06.889Z,94952
2018-05-13T02:51:44.413Z,94955
2018-05-13T02:52:21.943Z,94958
2018-05-13T02:52:59.303Z,94960
2018-05-13T02:53:36.664Z,94957
2018-05-13T02:54:13.991Z,94957
2018-05-13T02:54:51.372Z,94960
2018-05-13T02:55:28.696Z,94956
2018-05-13T02:56:06.048Z,94955
2018-05-13T02:56:43.602Z,94957
2018-05-13T02:57:20.956Z,94963
2018-05-13T02:57:58.514Z,94961
2018-05-13T02:58:36.032Z,94961
2018-05-13T02:59:13.601Z,94963
2018-05-13T02:59:51.194Z,94967
2018-05-13T03:00:28.814Z,94958
2018-05-13T03:01:06.465Z,94960
2018-05-13T03:01:44.014Z,94962
2018-05-13T03:02:21.651Z,94965
2018-05-13T03:02:59.151Z,94964
2018-05-13T03:03:36.798Z,94961
2018-05-13T03:04:14.367Z,94959
2018-05-13T03:04:51.958Z,94959
2018-05-13T03:05:29.484Z,94963
2018-05-13T03:06:06.896Z,94962
2018-05-13T03:06:45.172Z,94960
2018-05-13T03:07:23.493Z,94964
2018-05-13T03:08:01.287Z,94961
2018-05-13T03:08:39.492Z,94964
2018-05-13T03:09:16.836Z,94964
2018-05-13T03:09:54.924Z,94964
2018-05-13T03:10:32.339Z,94962
2018-05-13T03:11:09.916Z,94958
2018-05-13T03:11:47.357Z,94961
2018-05-13T03:12:25.464Z,94962
2018-05-13T03:13:03.060Z,94958
2018-05-13T03:13:40.609Z,94957
2018-05-13T03:14:18.091Z,94957
2018-05-13T03:14:55.732Z,94960
2018-05-13T03:15:33.236Z,94957
2018-05-13T03:16:10.831Z,94956
2018-05-13T03:16:48.435Z,94955
2018-05-13T03:17:25.927Z,94960
2018-05-13T03:18:03.456Z,94962
2018-05-13T03:18:41.774Z,94956
2018-05-13T03:19:19.131Z,94961
2018-05-13T03:19:56.691Z,94963
2018-05-13T03:20:34.248Z,94961
2018-05-13T03:21:11.797Z,94961
2018-05-13T03:21:49.242Z,94959
2018-05-13T03:22:26.790Z,94959
2018-05-13T03:23:04.255Z,94961
2018-05-13T03:23:41.675Z,94960
2018-05-13T03:24:20.017Z,94960
2018-05-13T03:24:57.594Z,94961
2018-05-13T03:25:34.943Z,94961
2018-05-13T03:26:12.491Z,94962
2018-05-13T03:26:50.639Z,94962
2018-05-13T03:27:28.246Z,94964
2018-05-13T03:28:05.679Z,94966
2018-05-13T03:28:43.260Z,94971
2018-05-13T03:29:20.793Z,94969
2018-05-13T03:29:58.216Z,94965
2018-05-13T03:30:35.519Z,94967
2018-05-13T03:31:13.809Z,94972
2018-05-13T03:31:51.295Z,94965
2018-05-13T03:32:28.839Z,94968
2018-05-13T03:33:06.393Z,94966
2018-05-13T03:33:43.859Z,94971
2018-05-13T03:34:21.450Z,94971
2018-05-13T03:34:59.000Z,94967
2018-05-13T03:35:36.596Z,94972
2018-05-13T03:36:14.771Z,94969
2018-05-13T03:36:52.163Z,94971
2018-05-13T03:37:29.691Z,94969
2018-05-13T03:38:07.240Z,94971
2018-05-13T03:38:45.505Z,94973
2018-05-13T03:39:23.095Z,94975
2018-05-13T03:40:00.635Z,94971
2018-05-13T03:40:38.219Z,94976
2018-05-13T03:41:15.633Z,94969
2018-05-13T03:41:52.990Z,94967
2018-05-13T03:42:31.358Z,94972
2018-05-13T03:43:09.585Z,94970
2018-05-13T03:43:46.974Z,94966
2018-05-13T03:44:24.475Z,94965
2018-05-13T03:45:02.062Z,94964
2018-05-13T03:45:39.498Z,94968
2018-05-13T03:46:17.085Z,94965
2018-05-13T03:46:54.549Z,94963
2018-05-13T03:47:32.155Z,94961
2018-05-13T03:48:09.723Z,94963
2018-05-13T03:48:47.300Z,94958
2018-05-13T03:49:24.945Z,94958
2018-05-13T03:50:02.501Z,94960
2018-05-13T03:50:40.061Z,94958
2018-05-13T03:51:17.608Z,94957
2018-05-13T03:51:54.970Z,94961
2018-05-13T03:52:32.361Z,94961
2018-05-13T03:53:10.583Z,94959
2018-05-13T03:53:48.790Z,94963
2018-05-13T03:54:26.415Z,94961
2018-05-13T03:55:03.812Z,94961
2018-05-13T03:55:42.014Z,94961
2018-05-13T03:56:19.524Z,94963
2018-05-13T03:56:57.820Z,94963
2018-05-13T03:57:35.428Z,94964
2018-05-13T03:58:12.782Z,94964
2018-05-13T03:58:51.065Z,94964
2018-05-13T03:59:29.349Z,94966
2018-05-13T04:00:07.464Z,94969
2018-05-13T04:00:44.969Z,94970
2018-05-13T04:01:22.516Z,94973
2018-05-13T04:02:00.814Z,94973
2018-05-13T04:02:38.410Z,94975
2018-05-13T04:03:15.781Z,94977
2018-05-13T04:03:53.179Z,94976
2018-05-13T04:04:31.443Z,94985
2018-05-13T04:05:09.735Z,94983
2018-05-13T04:05:47.122Z,94985
2018-05-13T04:06:24.689Z,94991
2018-05-13T04:07:02.050Z,94993
2018-05-13T04:07:39.579Z,94993
2018-05-13T04:08:16.889Z,94998
2018-05-13T04:08:54.422Z,94991
2018-05-13T04:09:31.918Z,94993
2018-05-13T04:10:09.497Z,94999
2018-05-13T04:10:47.133Z,94997
2018-05-13T04:11:24.638Z,94994
2018-05-13T04:12:02.252Z,94985
2018-05-13T04:12:39.602Z,94989
2018-05-13T04:13:17.171Z,94994
2018-05-13T04:13:54.523Z,94990
2018-05-13T04:14:31.895Z,94996
2018-05-13T04:15:09.490Z,94994
2018-05-13T04:15:47.128Z,94997
2018-05-13T04:16:24.700Z,94994
2018-05-13T04:17:02.138Z,94995
2018-05-13T04:17:39.731Z,94996
2018-05-13T04:18:17.347Z,94999
2018-05-13T04:18:54.849Z,94998
2018-05-13T04:19:32.405Z,94998
2018-05-13T04:20:10.592Z,94999
2018-05-13T04:20:47.927Z,94997
2018-05-13T04:21:25.548Z,94997
2018-05-13T04:22:03.074Z,94998
2018-05-13T04:22:40.455Z,95002
2018-05-13T04:23:18.067Z,95004
2018-05-13T04:23:55.657Z,95004
2018-05-13T04:24:33.738Z,95005
2018-05-13T04:25:11.038Z,95008
2018-05-13T04:25:48.611Z,95008
2018-05-13T04:26:26.201Z,95011
2018-05-13T04:27:03.762Z,95010
2018-05-13T04:27:41.956Z,95003
2018-05-13T04:28:20.238Z,95001
2018-05-13T04:28:58.330Z,95000
2018-05-13T04:29:35.962Z,95003
2018-05-13T04:30:13.548Z,95002
2018-05-13T04:30:51.179Z,95003
2018-05-13T04:31:29.575Z,95005
2018-05-13T04:32:07.190Z,95007
2018-05-13T04:32:44.769Z,94997
2018-05-13T04:33:22.367Z,95001
2018-05-13T04:33:59.883Z,95005
2018-05-13T04:34:37.427Z,95003
2018-05-13T04:35:14.790Z,95006
2018-05-13T04:35:52.270Z,95002
2018-05-13T04:36:30.704Z,95001
2018-05-13T04:37:09.030Z,94997
2018-05-13T04:37:47.219Z,94997
2018-05-13T04:38:24.615Z,95002
2018-05-13T04:39:02.190Z,95001
2018-05-13T04:39:40.328Z,94999
2018-05-13T04:40:18.650Z,94996
2018-05-13T04:40:56.242Z,95002
2018-05-13T04:41:33.831Z,95000
2018-05-13T04:42:11.439Z,95001
2018-05-13T04:42:49.040Z,95009
2018-05-13T04:43:26.608Z,95005
2018-05-13T04:44:04.148Z,95008
2018-05-13T04:44:41.689Z,95006
2018-05-13T04:45:19.107Z,95005
2018-05-13T04:45:56.543Z,95010
2018-05-13T04:46:33.968Z,95015
2018-05-13T04:47:11.629Z,95014
2018-05-13T04:47:49.246Z,95014
2018-05-13T04:48:26.611Z,95016
2018-05-13T04:49:03.994Z,95013
2018-05-13T04:49:41.413Z,95014
2018-05-13T04:50:18.999Z,95016
2018-05-13T04:50:56.475Z,95012
2018-05-13T04:51:34.089Z,95008
2018-05-13T04:52:11.660Z,95007
2018-05-13T04:52:49.189Z,95011
2018-05-13T04:53:26.715Z,95012
2018-05-13T04:54:04.280Z,95007
2018-05-13T04:54:41.673Z,95005
2018-05-13T04:55:19.764Z,95009
2018-05-13T04:55:57.345Z,95016
2018-05-13T04:56:34.900Z,95014
2018-05-13T04:57:12.250Z,95017
2018-05-13T04:57:49.631Z,95021
2018-05-13T04:58:27.144Z,95019
2018-05-13T04:59:04.691Z,95021
2018-05-13T04:59:42.071Z,95019
2018-05-13T05:00:19.451Z,95017
2018-05-13T05:00:57.786Z,95017
2018-05-13T05:01:35.337Z,95015
2018-05-13T05:02:12.946Z,95017
2018-05-13T05:02:50.581Z,95014
2018-05-13T05:03:28.159Z,95012
2018-05-13T05:04:05.563Z,95017
2018-05-13T05:04:42.940Z,95019
2018-05-13T05:05:20.436Z,95019
2018-05-13T05:05:58.543Z,95019
2018-05-13T05:06:36.151Z,95021
2018-05-13T05:07:13.713Z,95019
2018-05-13T05:07:51.296Z,95021
2018-05-13T05:08:28.643Z,95023
2018-05-13T05:09:06.168Z,95022
2018-05-13T05:09:43.746Z,95021
2018-05-13T05:10:21.253Z,95017
2018-05-13T05:10:58.663Z,95021
2018-05-13T05:11:36.768Z,95019
2018-05-13T05:12:14.388Z,95015
2018-05-13T05:12:51.939Z,95015
2018-05-13T05:13:29.484Z,95018
2018-05-13T05:14:07.001Z,95019
2018-05-13T05:14:44.568Z,95017
2018-05-13T05:15:22.228Z,95018
2018-05-13T05:15:59.747Z,95017
2018-05-13T05:16:38.131Z,95019
2018-05-13T05:17:15.706Z,95017
2018-05-13T05:17:53.286Z,95015
2018-05-13T05:18:30.888Z,95021
2018-05-13T05:19:08.183Z,95022
2018-05-13T05:19:45.723Z,95024
2018-05-13T05:20:23.026Z,95022
2018-05-13T05:21:00.622Z,95021
2018-05-13T05:21:38.269Z,95023
2018-05-13T05:22:15.900Z,95023
2018-05-13T05:22:53.445Z,95030
2018-05-13T05:23:31.774Z,95027
2018-05-13T05:24:09.328Z,95030
2018-05-13T05:24:47.696Z,95027
2018-05-13T05:25:25.256Z,95025
2018-05-13T05:26:02.531Z,95032
2018-05-13T05:26:39.995Z,95028
2018-05-13T05:27:18.257Z,95030
2018-05-13T05:27:55.724Z,95029
2018-05-13T05:28:33.218Z,95022
2018-05-13T05:29:10.613Z,95024
2018-05-13T05:29:48.157Z,95022
2018-05-13T05:30:25.743Z,95025
2018-05-13T05:31:03.348Z,95029
2018-05-13T05:31:40.888Z,95024
2018-05-13T05:32:18.491Z,95027
2018-05-13T05:32:56.077Z,95021
2018-05-13T05:33:33.574Z,95021
2018-05-13T05:34:11.076Z,95019
2018-05-13T05:34:48.719Z,95022
2018-05-13T05:35:26.056Z,95023
2018-05-13T05:36:03.487Z,95019
2018-05-13T05:36:41.082Z,95019
2018-05-13T05:37:18.646Z,95022
2018-05-13T05:37:56.197Z,95019
2018-05-13T05:38:33.814Z,95019
2018-05-13T05:39:11.372Z,95019
2018-05-13T05:39:49.722Z,95016
2018-05-13T05:40:27.365Z,95016
2018-05-13T05:41:04.954Z,95020
2018-05-13T05:41:42.547Z,95018
2018-05-13T05:42:20.735Z,95019
2018-05-13T05:42:58.252Z,95013
2018-05-13T05:43:35.636Z,95018
2018-05-13T05:44:12.946Z,95016
2018-05-13T05:44:50.508Z,95015
2018-05-13T05:45:27.871Z,95016
2018-05-13T05:46:06.175Z,95015
2018-05-13T05:46:44.527Z,95020
2018-05-13T05:47:22.948Z,95015
2018-05-13T05:48:00.654Z,95018
2018-05-13T05:48:38.238Z,95016
2018-05-13T05:49:16.557Z,95016
2018-05-13T05:49:54.130Z,95014
2018-05-13T05:50:31.697Z,95014
2018-05-13T05:51:09.835Z,95020
2018-05-13T05:51:47.310Z,95020
2018-05-13T05:52:25.583Z,95019
2018-05-13T05:53:02.945Z,95014
2018-05-13T05:53:40.320Z,95018
2018-05-13T05:54:18.446Z,95014
2018-05-13T05:54:55.886Z,95018
2018-05-13T05:55:33.511Z,95020
2018-05-13T05:56:11.097Z,95019
2018-05-13T05:56:49.399Z,95024
2018-05-13T05:57:26.832Z,95018
2018-05-13T05:58:04.440Z,95019
2018-05-13T05:58:42.047Z,95017
2018-05-13T05:59:19.607Z,95021
2018-05-13T05:59:57.175Z,95023
2018-05-13T06:00:35.279Z,95020
2018-05-13T06:01:12.921Z,95019
2018-05-13T06:01:50.490Z,95022
2018-05-13T06:02:27.900Z,95022
2018-05-13T06:03:05.395Z,95017
2018-05-13T06:03:42.917Z,95021
2018-05-13T06:04:20.475Z,95016
2018-05-13T06:04:58.059Z,95025
2018-05-13T06:05:35.486Z,95023
2018-05-13T06:06:13.004Z,95023
2018-05-13T06:06:50.575Z,95023
2018-05-13T06:07:27.919Z,95020
2018-05-13T06:08:05.441Z,95026
2018-05-13T06:08:43.028Z,95026
2018-05-13T06:09:21.208Z,95024
2018-05-13T06:09:59.312Z,95028
2018-05-13T06:10:36.803Z,95028
2018-05-13T06:11:14.454Z,95026
2018-05-13T06:11:51.933Z,95026
2018-05-13T06:12:29.287Z,95022
2018-05-13T06:13:06.798Z,95025
2018-05-13T06:13:44.399Z,95022
2018-05-13T06:14:21.959Z,95027
2018-05-13T06:14:59.546Z,95023
2018-05-13T06:15:37.156Z,95024
2018-05-13T06:16:14.694Z,95018
2018-05-13T06:16:52.059Z,95017
2018-05-13T06:17:29.407Z,95015
2018-05-13T06:18:06.930Z,95018
2018-05-13T06:18:44.434Z,95023
2018-05-13T06:19:22.041Z,95019
2018-05-13T06:19:59.476Z,95020
2018-05-13T06:20:36.943Z,95019
2018-05-13T06:21:14.440Z,95018
2018-05-13T06:21:51.898Z,95018
2018-05-13T06:22:29.441Z,95016
2018-05-13T06:23:07.684Z,95019
2018-05-13T06:23:45.804Z,95015
2018-05-13T06:24:23.354Z,95015
2018-05-13T06:25:01.461Z,95019
2018-05-13T06:25:39.552Z,95017
2018-05-13T06:26:17.058Z,95021
2018-05-13T06:26:55.221Z,95014
2018-05-13T06:27:32.820Z,95018
2018-05-13T06:28:10.314Z,95016
2018-05-13T06:28:47.782Z,95017
2018-05-13T06:29:25.350Z,95014
2018-05-13T06:30:02.811Z,95015
2018-05-13T06:30:40.869Z,95013
2018-05-13T06:31:18.424Z,95015
2018-05-13T06:31:55.949Z,95016
2018-05-13T06:32:33.333Z,95017
2018-05-13T06:33:10.696Z,95015
2018-05-13T06:33:48.832Z,95015
2018-05-13T06:34:26.298Z,95014
2018-05-13T06:35:04.719Z,95019
2018-05-13T06:35:42.262Z,95017
2018-05-13T06:36:19.748Z,95014
2018-05-13T06:36:57.356Z,95014
2018-05-13T06:37:34.915Z,95016
2018-05-13T06:38:12.461Z,95015
2018-05-13T06:38:49.830Z,95014
2018-05-13T06:39:27.384Z,95017
2018-05-13T06:40:04.919Z,95015
2018-05-13T06:40:43.223Z,95014
2018-05-13T06:41:21.339Z,95010
2018-05-13T06:41:58.934Z,95013
2018-05-13T06:42:36.564Z,95010
2018-05-13T06:43:14.022Z,95013
2018-05-13T06:43:52.159Z,95009
2018-05-13T06:44:29.767Z,95016
2018-05-13T06:45:07.401Z,95013
2018-05-13T06:45:44.914Z,95011
2018-05-13T06:46:22.562Z,95010
2018-05-13T06:47:00.064Z,95015
2018-05-13T06:47:37.613Z,95008
2018-05-13T06:48:15.040Z,95015
2018-05-13T06:48:52.606Z,95014
2018-05-13T06:49:30.212Z,95013
2018-05-13T06:50:07.704Z,95013
2018-05-13T06:50:45.251Z,95012
2018-05-13T06:51:22.948Z,95015
2018-05-13T06:52:00.192Z,95013
2018-05-13T06:52:37.808Z,95011
2018-05-13T06:53:15.384Z,95010
2018-05-13T06:53:52.865Z,95016
2018-05-13T06:54:31.055Z,95015
2018-05-13T06:55:08.415Z,95018
2018-05-13T06:55:45.782Z,95011
2018-05-13T06:56:24.122Z,95017
2018-05-13T06:57:02.420Z,95010
2018-05-13T06:57:39.915Z,95013
2018-05-13T06:58:17.479Z,95013
2018-05-13T06:58:55.036Z,95018
2018-05-13T06:59:32.370Z,95014
2018-05-13T07:00:09.899Z,95012
2018-05-13T07:00:47.370Z,95008
2018-05-13T07:01:24.875Z,95013
2018-05-13T07:02:02.487Z,95005
2018-05-13T07:02:40.012Z,95006
2018-05-13T07:03:18.331Z,95001
2018-05-13T07:03:55.901Z,95002
2018-05-13T07:04:33.232Z,95006
2018-05-13T07:05:10.615Z,95002
2018-05-13T07:05:47.961Z,95003
2018-05-13T07:06:25.520Z,95003
2018-05-13T07:07:03.121Z,95005
2018-05-13T07:07:40.459Z,95005
2018-05-13T07:08:17.992Z,95002
2018-05-13T07:08:55.396Z,95003
2018-05-13T07:09:32.772Z,95003
2018-05-13T07:10:10.332Z,95001
2018-05-13T07:10:47.905Z,95001
2018-05-13T07:11:25.555Z,95002
2018-05-13T07:12:03.094Z,95004
2018-05-13T07:12:40.454Z,94999
2018-05-13T07:13:18.073Z,95004
2018-05-13T07:13:55.667Z,95002
2018-05-13T07:14:33.242Z,95004
2018-05-13T07:15:10.847Z,94998
2018-05-13T07:15:48.224Z,95003
2018-05-13T07:16:25.850Z,94999
2018-05-13T07:17:03.391Z,94993
2018-05-13T07:17:40.907Z,94992
2018-05-13T07:18:18.314Z,94996
2018-05-13T07:18:55.754Z,94997
2018-05-13T07:19:33.159Z,94999
2018-05-13T07:20:11.287Z,94997
2018-05-13T07:20:48.755Z,94996
2018-05-13T07:21:26.955Z,95001
2018-05-13T07:22:04.356Z,95001
2018-05-13T07:22:42.025Z,94999
2018-05-13T07:23:19.611Z,94999
2018-05-13T07:23:57.901Z,94997
2018-05-13T07:24:35.493Z,94996
2018-05-13T07:25:13.036Z,94998
2018-05-13T07:25:50.522Z,94997
2018-05-13T07:26:28.108Z,94994
2018-05-13T07:27:05.507Z,94997
2018-05-13T07:27:43.056Z,94996
2018-05-13T07:28:20.639Z,94993
2018-05-13T07:28:58.166Z,94992
2018-05-13T07:29:35.696Z,94990
2018-05-13T07:30:13.067Z,94994
2018-05-13T07:30:50.442Z,94992
2018-05-13T07:31:28.045Z,94991
2018-05-13T07:32:06.326Z,94993
2018-05-13T07:32:43.792Z,94993
2018-05-13T07:33:21.295Z,94993
2018-05-13T07:33:58.831Z,94993
2018-05-13T07:34:36.351Z,94989
2018-05-13T07:35:13.939Z,94992
2018-05-13T07:35:51.404Z,94990
2018-05-13T07:36:29.516Z,94986
2018-05-13T07:37:06.959Z,94986
2018-05-13T07:37:45.091Z,94989
2018-05-13T07:38:22.703Z,94989
2018-05-13T07:39:00.242Z,94988
2018-05-13T07:39:37.814Z,94987
2018-05-13T07:40:15.203Z,94987
2018-05-13T07:40:52.789Z,94982
2018-05-13T07:41:30.877Z,94984
2018-05-13T07:42:08.470Z,94974
2018-05-13T07:42:46.034Z,94977
2018-05-13T07:43:23.667Z,94976
2018-05-13T07:44:00.963Z,94973
2018-05-13T07:44:38.491Z,94973
2018-05-13T07:45:15.926Z,94972
2018-05-13T07:45:53.331Z,94976
2018-05-13T07:46:30.895Z,94974
2018-05-13T07:47:09.208Z,94976
2018-05-13T07:47:46.494Z,94975
2018-05-13T07:48:24.692Z,94975
2018-05-13T07:49:02.258Z,94976
2018-05-13T07:49:39.836Z,94981
2018-05-13T07:50:17.431Z,94979
2018-05-13T07:50:55.052Z,94980
2018-05-13T07:51:32.487Z,94980
2018-05-13T07:52:10.075Z,94982
2018-05-13T07:52:47.616Z,94984
2018-05-13T07:53:25.145Z,94984
2018-05-13T07:54:03.407Z,94979
2018-05-13T07:54:40.931Z,94979
2018-05-13T07:55:18.488Z,94982
2018-05-13T07:55:56.624Z,94978
2018-05-13T07:56:34.212Z,94978
2018-05-13T07:57:11.829Z,94976
2018-05-13T07:57:50.010Z,94976
2018-05-13T07:58:27.434Z,94978
2018-05-13T07:59:04.970Z,94977
2018-05-13T07:59:42.512Z,94974
2018-05-13T08:00:20.795Z,94973
2018-05-13T08:00:58.338Z,94977
2018-05-13T08:01:36.453Z,94977
2018-05-13T08:02:13.959Z,94975
2018-05-13T08:02:51.526Z,94976
2018-05-13T08:03:29.085Z,94974
2018-05-13T08:04:06.720Z,94971
2018-05-13T08:04:44.975Z,94974